Time;durP1;ratioP1;P1;durP2;ratioP2;P2;SDS_P1;SDS_P2;PMS_P1;PMS_P2;Temp;Humidity;BMP_temperature;BMP_pressure;BME280_temperature;BME280_humidity;BME280_pressure;Samples;Min_cycle;Max_cycle;Signal;HPM_P1;HPM_P2
2024/03/07 00:00:56;;;;;;;35.20;12.50;;;4.40;99.90;;;2.88;99.84;102439.66;4760333;29;20044;-80
2024/03/07 00:03:24;;;;;;;38.63;13.20;;;4.40;99.90;;;2.81;100.00;102443.03;4809745;29;20139;-80
2024/03/07 00:05:55;;;;;;;33.63;13.27;;;4.40;99.90;;;2.72;100.00;102439.44;4811699;29;20052;-80
2024/03/07 00:08:21;;;;;;;34.67;13.00;;;4.30;99.90;;;2.73;100.00;102438.59;4817755;29;20048;-80
2024/03/07 00:10:47;;;;;;;31.25;12.45;;;4.30;99.90;;;2.69;100.00;102437.66;4799773;29;20045;-80
2024/03/07 00:13:13;;;;;;;35.00;13.27;;;4.30;99.90;;;2.65;100.00;102435.88;4818601;29;20097;-80
2024/03/07 00:15:40;;;;;;;33.50;13.65;;;4.20;99.90;;;2.55;100.00;102434.91;4806562;29;20046;-79
2024/03/07 00:18:10;;;;;;;40.45;13.30;;;4.20;99.90;;;2.49;100.00;102434.81;4769112;29;20117;-80
2024/03/07 00:20:36;;;;;;;30.27;12.55;;;4.20;99.90;;;2.53;100.00;102440.91;4758649;29;20069;-80
2024/03/07 00:23:02;;;;;;;33.47;12.90;;;4.10;99.90;;;2.49;100.00;102440.00;4770981;29;20132;-80
2024/03/07 00:25:31;;;;;;;34.35;13.07;;;4.10;99.90;;;2.40;100.00;102435.53;4806978;29;20157;-79
2024/03/07 00:28:02;;;;;;;32.17;13.48;;;4.00;99.90;;;2.33;100.00;102430.22;4747901;29;20050;-81
2024/03/07 00:30:29;;;;;;;35.35;14.52;;;4.00;99.90;;;2.29;100.00;102429.31;4789522;29;20094;-80
2024/03/07 00:32:56;;;;;;;40.08;13.80;;;3.90;99.90;;;2.21;100.00;102438.72;4786855;29;20053;-79
2024/03/07 00:35:24;;;;;;;32.30;13.88;;;3.90;99.90;;;2.17;100.00;102429.13;4781428;29;20060;-80
2024/03/07 00:37:59;;;;;;;40.53;14.43;;;3.80;99.90;;;2.09;100.00;102429.00;4800535;29;20041;-79
2024/03/07 00:40:25;;;;;;;38.05;14.63;;;3.80;99.90;;;2.04;100.00;102434.13;4820698;29;20030;-80
2024/03/07 00:42:59;;;;;;;37.78;13.82;;;3.70;99.90;;;1.98;100.00;102421.03;4822432;29;20093;-80
2024/03/07 00:45:25;;;;;;;40.90;14.63;;;3.60;99.90;;;1.93;100.00;102421.81;4804506;29;20043;-79
2024/03/07 00:47:53;;;;;;;33.92;14.00;;;3.60;99.90;;;1.94;100.00;102420.97;4775615;29;20067;-80
2024/03/07 00:50:19;;;;;;;29.63;13.20;;;3.50;99.90;;;1.86;100.00;102415.66;4805546;29;20045;-80
2024/03/07 00:52:45;;;;;;;34.72;13.95;;;3.40;99.90;;;1.77;100.00;102421.56;4788561;29;20061;-80
2024/03/07 00:55:22;;;;;;;44.05;14.70;;;3.40;99.90;;;1.68;100.00;102413.59;4796969;29;20516;-80
2024/03/07 00:57:49;;;;;;;39.42;14.30;;;3.30;99.90;;;1.63;100.00;102407.47;4795666;29;20409;-80
2024/03/07 01:00:25;;;;;;;38.78;15.30;;;3.20;99.90;;;1.59;100.00;102408.25;4786293;29;20040;-80
2024/03/07 01:02:53;;;;;;;;;;;3.20;99.90;;;1.49;100.00;102411.53;4784299;29;20736;-80
2024/03/07 01:05:25;;;;;;;43.25;14.30;;;3.10;99.90;;;1.42;100.00;102415.75;4793385;29;19931;-79
2024/03/07 01:07:55;;;;;;;40.17;15.63;;;3.00;99.90;;;1.39;100.00;102407.91;4758750;29;20121;-80
2024/03/07 01:10:22;;;;;;;40.78;15.45;;;3.00;99.90;;;1.37;100.00;102409.59;4752575;29;20045;-80
2024/03/07 01:13:00;;;;;;;44.35;15.75;;;3.00;99.90;;;1.35;100.00;102401.78;4759220;29;20053;-80
2024/03/07 01:15:36;;;;;;;40.33;16.25;;;2.90;99.90;;;1.32;100.00;102401.72;4802445;29;20616;-80
2024/03/07 01:18:02;;;;;;;44.33;15.70;;;2.90;99.90;;;1.29;100.00;102401.66;4785161;29;20049;-80
2024/03/07 01:20:28;;;;;;;42.35;16.33;;;2.90;99.90;;;1.27;100.00;102403.34;4782231;29;21075;-80
2024/03/07 01:22:59;;;;;;;46.80;17.33;;;2.90;99.90;;;1.25;100.00;102398.97;4803706;29;20141;-80
2024/03/07 01:25:25;;;;;;;44.05;15.50;;;2.80;99.90;;;1.24;100.00;102400.72;4800107;29;20035;-80
2024/03/07 01:27:51;;;;;;;41.58;16.05;;;2.80;99.90;;;1.19;100.00;102395.44;4831188;29;20290;-79
2024/03/07 01:30:16;;;;;;;42.20;17.20;;;2.80;99.90;;;1.13;100.00;102390.13;4801863;29;20067;-80
2024/03/07 01:32:43;;;;;;;47.40;17.15;;;2.70;99.90;;;1.11;100.00;102394.41;4817651;29;20064;-80
2024/03/07 01:35:09;;;;;;;55.08;16.92;;;2.70;99.90;;;1.07;100.00;102391.72;4814953;29;20045;-79
2024/03/07 01:37:42;;;;;;;39.13;14.98;;;2.70;99.90;;;1.02;100.00;102391.66;4806698;29;20033;-80
2024/03/07 01:40:09;;;;;;;49.35;14.98;;;2.60;99.90;;;0.97;100.00;102399.34;4815373;29;20046;-80
2024/03/07 01:42:35;;;;;;;45.85;15.00;;;2.50;99.90;;;0.91;100.00;102396.63;4804579;29;20413;-80
2024/03/07 01:45:08;;;;;;;39.42;14.65;;;2.40;99.90;;;0.82;100.00;102399.00;4771257;29;20420;-79
2024/03/07 01:47:37;;;;;;;39.80;14.43;;;2.30;99.90;;;0.70;100.00;102399.66;4818693;29;20415;-81
2024/03/07 01:50:03;;;;;;;48.17;16.73;;;2.30;99.90;;;0.65;100.00;102405.56;4771700;29;20523;-79
2024/03/07 01:52:43;;;;;;;45.25;15.98;;;2.20;99.90;;;0.60;100.00;102403.78;4767207;29;20070;-80
2024/03/07 01:55:10;;;;;;;48.20;16.50;;;2.10;99.90;;;0.55;100.00;102400.19;4778640;29;20038;-80
2024/03/07 01:57:45;;;;;;;39.30;15.73;;;2.10;99.90;;;0.54;100.00;102403.63;4748261;29;20174;-80
2024/03/07 02:00:12;;;;;;;47.05;17.25;;;2.10;99.90;;;0.46;100.00;102399.13;4803725;29;20061;-80
2024/03/07 02:02:47;;;;;;;44.17;15.75;;;2.00;99.90;;;0.36;100.00;102395.44;4829940;29;20145;-79
2024/03/07 02:05:14;;;;;;;39.60;15.27;;;1.90;99.90;;;0.25;100.00;102394.34;4800710;29;20051;-79
2024/03/07 02:07:40;;;;;;;41.47;17.00;;;1.80;99.90;;;0.17;100.00;102392.47;4810375;29;20031;-79
2024/03/07 02:10:16;;;;;;;54.42;19.23;;;1.70;99.90;;;0.11;100.00;102389.72;4805604;29;20708;-79
2024/03/07 02:12:41;;;;;;;;;;;1.70;99.90;;;0.06;100.00;102383.53;4815340;29;20042;-80
2024/03/07 02:15:08;;;;;;;46.35;18.15;;;1.60;99.90;;;0.03;100.00;102382.63;4791640;29;19949;-79
2024/03/07 02:17:44;;;;;;;55.83;19.05;;;1.60;99.90;;;0.04;100.00;102385.22;4774398;29;20075;-79
2024/03/07 02:20:14;;;;;;;;;;;1.60;99.90;;;0.03;100.00;102383.47;4790193;29;20098;-79
2024/03/07 02:22:42;;;;;;;47.05;18.05;;;1.60;99.90;;;0.01;100.00;102384.28;4798632;29;20002;-80
2024/03/07 02:25:12;;;;;;;50.80;19.17;;;1.60;99.90;;;-0.01;100.00;102381.66;4783806;29;20042;-79
2024/03/07 02:27:38;;;;;;;44.75;18.83;;;1.60;99.90;;;-0.01;100.00;102385.13;4773238;29;20107;-79
2024/03/07 02:30:08;;;;;;;47.75;19.90;;;1.60;99.90;;;0.02;100.00;102388.63;4763617;29;20053;-79
2024/03/07 02:32:37;;;;;;;43.03;18.48;;;1.60;99.90;;;-0.02;100.00;102380.78;4771394;29;20041;-79
2024/03/07 02:35:04;;;;;;;45.22;18.92;;;1.50;99.90;;;-0.01;100.00;102384.25;4809124;29;20078;-79
2024/03/07 02:37:30;;;;;;;47.92;19.13;;;1.60;99.90;;;0.01;100.00;102389.47;4806565;29;20050;-79
2024/03/07 02:39:56;;;;;;;46.40;18.73;;;1.60;99.90;;;-0.01;100.00;102381.66;4818895;29;20070;-79
2024/03/07 02:42:31;;;;;;;;;;;;;;;;;;;;;
2024/03/07 02:44:57;;;;;;;46.00;17.15;;;1.50;99.90;;;-0.02;100.00;102382.50;4801464;29;20570;-79
2024/03/07 02:47:23;;;;;;;47.25;18.95;;;1.50;99.90;;;-0.04;100.00;102384.19;4787990;29;20121;-80
2024/03/07 02:49:49;;;;;;;45.13;17.20;;;1.50;99.90;;;-0.08;100.00;102385.81;4811223;29;20108;-79
2024/03/07 02:52:20;;;;;;;42.92;17.52;;;1.50;99.90;;;-0.15;100.00;102378.75;4783608;29;20038;-80
2024/03/07 02:54:46;;;;;;;50.38;18.60;;;1.40;99.90;;;-0.20;100.00;102375.16;4803788;29;20049;-79
2024/03/07 02:57:12;;;;;;;53.92;18.15;;;1.40;99.90;;;-0.25;100.00;102374.19;4802468;29;20495;-80
2024/03/07 02:59:38;;;;;;;54.38;19.80;;;1.30;99.90;;;-0.29;100.00;102390.47;4814797;29;20049;-79
2024/03/07 03:02:03;;;;;;;46.53;18.85;;;1.30;99.90;;;-0.33;100.00;102379.16;4845500;29;20060;-80
2024/03/07 03:04:29;;;;;;;45.45;18.08;;;1.20;99.90;;;-0.38;100.00;102370.41;4822252;29;20046;-79
2024/03/07 03:07:02;;;;;;;44.88;17.77;;;1.20;99.90;;;-0.39;100.00;102376.41;4767448;29;20065;-80
2024/03/07 03:09:28;;;;;;;48.80;18.83;;;1.20;99.90;;;-0.44;100.00;102381.47;4779717;29;20506;-79
2024/03/07 03:11:54;;;;;;;56.40;19.30;;;1.10;99.90;;;-0.50;100.00;102378.72;4777627;29;20048;-79
2024/03/07 03:14:21;;;;;;;51.97;19.42;;;1.10;99.90;;;-0.55;100.00;102376.88;4792450;29;20045;-79
2024/03/07 03:16:51;;;;;;;45.40;18.77;;;1.00;99.90;;;-0.58;100.00;102380.28;4781615;29;20039;-79
2024/03/07 03:19:17;;;;;;;47.60;18.85;;;1.00;99.90;;;-0.62;100.00;102376.72;4758001;29;20050;-79
2024/03/07 03:21:43;;;;;;;53.13;18.58;;;1.00;99.90;;;-0.60;100.00;102387.13;4779149;29;20226;-79
2024/03/07 03:24:08;;;;;;;54.15;18.80;;;0.90;99.90;;;-0.66;100.00;102377.47;4792556;29;20489;-80
2024/03/07 03:26:35;;;;;;;46.50;17.88;;;0.90;99.90;;;-0.69;100.00;102374.81;4801986;29;20430;-79
2024/03/07 03:29:01;;;;;;;52.08;17.75;;;0.90;99.90;;;-0.71;100.00;102375.63;4787372;29;20047;-79
2024/03/07 03:31:35;;;;;;;40.22;17.58;;;0.90;99.90;;;-0.73;100.00;102375.56;4798544;29;20493;-79
2024/03/07 03:34:01;;;;;;;43.60;18.45;;;0.90;99.90;;;-0.76;100.00;102375.47;4800626;29;20113;-79
2024/03/07 03:36:27;;;;;;;46.72;18.88;;;0.80;99.90;;;-0.75;100.00;102381.53;4784261;29;20102;-79
2024/03/07 03:38:53;;;;;;;44.25;17.60;;;0.80;99.90;;;-0.76;100.00;102377.19;4811658;29;20042;-79
2024/03/07 03:41:22;;;;;;;51.38;19.80;;;0.80;99.90;;;-0.73;100.00;102377.28;4820752;29;20121;-79
2024/03/07 03:43:48;;;;;;;49.45;20.40;;;0.60;99.90;;;-0.73;100.00;102383.34;4766938;29;20146;-79
2024/03/07 03:46:14;;;;;;;50.10;20.20;;;0.80;99.90;;;-0.72;100.00;102385.06;4743784;29;21281;-79
2024/03/07 03:48:41;;;;;;;65.47;22.30;;;0.90;99.90;;;-0.70;100.00;102388.56;4754360;29;20095;-79
2024/03/07 03:51:21;;;;;;;56.47;21.90;;;0.90;99.90;;;-0.70;100.00;102388.56;4744540;29;20049;-79
2024/03/07 03:53:47;;;;;;;51.90;19.48;;;0.90;99.90;;;-0.68;100.00;102383.44;4750999;29;20107;-79
2024/03/07 03:56:15;;;;;;;49.58;20.25;;;0.90;99.90;;;-0.69;100.00;102387.75;4761239;29;20076;-79
2024/03/07 03:58:43;;;;;;;46.92;19.50;;;0.90;99.90;;;-0.71;100.00;102386.84;4737152;29;20079;-79
2024/03/07 04:01:12;;;;;;;53.05;18.83;;;0.80;99.90;;;-0.72;100.00;102386.78;4764570;29;20068;-79
2024/03/07 04:03:39;;;;;;;48.28;18.55;;;0.90;99.90;;;-0.73;100.00;102388.50;4737900;29;20087;-79
2024/03/07 04:06:05;;;;;;;45.38;17.80;;;0.90;99.90;;;-0.74;100.00;102391.03;4763655;29;20088;-79
2024/03/07 04:08:36;;;;;;;58.78;20.08;;;0.80;99.90;;;-0.76;100.00;102385.81;4743113;29;20397;-79
2024/03/07 04:11:03;;;;;;;51.53;19.60;;;0.80;99.90;;;-0.78;100.00;102384.91;4760243;29;20120;-81
2024/03/07 04:13:30;;;;;;;49.75;19.48;;;0.80;99.90;;;-0.79;100.00;102384.88;4787297;29;20031;-79
2024/03/07 04:15:56;;;;;;;50.78;19.40;;;0.80;99.90;;;-0.81;100.00;102381.38;4834957;29;20806;-79
2024/03/07 04:18:28;;;;;;;46.67;19.48;;;0.80;99.90;;;-0.81;100.00;102377.06;4779604;29;20056;-79
2024/03/07 04:20:54;;;;;;;47.90;19.20;;;0.80;99.90;;;-0.79;100.00;102382.28;4815916;29;20562;-80
2024/03/07 04:23:20;;;;;;;49.45;19.20;;;0.80;99.90;;;-0.80;100.00;102381.38;4785987;29;20053;-79
2024/03/07 04:25:46;;;;;;;51.45;19.88;;;0.80;99.90;;;-0.81;100.00;102379.66;4795079;29;20094;-79
2024/03/07 04:28:12;;;;;;;58.40;19.77;;;0.80;99.90;;;-0.80;100.00;102378.81;4813267;29;20489;-79
2024/03/07 04:30:43;;;;;;;64.85;22.42;;;0.70;99.90;;;-0.79;100.00;102382.28;4795548;29;20136;-78
2024/03/07 04:33:09;;;;;;;49.35;19.85;;;0.80;99.90;;;-0.78;100.00;102386.63;4776136;29;20408;-78
2024/03/07 04:35:35;;;;;;;47.42;19.60;;;0.80;99.90;;;-0.76;100.00;102387.53;4837367;29;20058;-79
2024/03/07 04:38:02;;;;;;;41.22;17.70;;;0.80;99.90;;;-0.78;100.00;102387.47;4813235;29;20041;-78
2024/03/07 04:40:27;;;;;;;49.95;18.98;;;0.80;99.90;;;-0.79;100.00;102390.06;4784361;29;20038;-79
2024/03/07 04:42:53;;;;;;;55.83;19.85;;;0.80;99.90;;;-0.81;100.00;102391.72;4783646;29;20048;-79
2024/03/07 04:45:24;;;;;;;50.83;18.75;;;0.80;99.90;;;-0.82;100.00;102393.44;4785153;29;20060;-78
2024/03/07 04:47:50;;;;;;;48.28;19.38;;;0.80;99.90;;;-0.84;100.00;102393.38;4770890;29;20043;-78
2024/03/07 04:50:19;;;;;;;49.10;18.67;;;0.70;99.90;;;-0.85;100.00;102394.22;4831134;29;20081;-78
2024/03/07 04:52:46;;;;;;;48.53;19.73;;;0.70;99.90;;;-0.86;100.00;102396.78;4804590;29;20544;-78
2024/03/07 04:55:20;;;;;;;48.95;19.23;;;0.70;99.90;;;-0.87;100.00;102395.00;4812605;29;20601;-78
2024/03/07 04:57:46;;;;;;;44.10;18.83;;;0.70;99.90;;;-0.88;100.00;102394.13;4771767;29;20054;-78
2024/03/07 05:00:14;;;;;;;54.10;20.02;;;0.70;99.90;;;-0.90;100.00;102400.97;4821940;29;20508;-79
2024/03/07 05:02:50;;;;;;;45.67;18.35;;;0.70;99.90;;;-0.94;100.00;102396.56;4820061;29;20077;-79
2024/03/07 05:05:26;;;;;;;50.53;19.08;;;0.60;99.90;;;-0.99;100.00;102405.91;4826429;29;20041;-78
2024/03/07 05:07:53;;;;;;;50.55;19.35;;;0.60;99.90;;;-1.02;100.00;102410.09;4797630;29;20482;-78
2024/03/07 05:10:20;;;;;;;49.42;18.23;;;0.60;99.90;;;-1.06;100.00;102406.53;4807594;29;20029;-78
2024/03/07 05:12:54;;;;;;;42.92;18.05;;;0.60;99.90;;;-1.12;100.00;102404.69;4800917;29;20068;-77
2024/03/07 05:15:20;;;;;;;52.88;18.95;;;0.50;99.90;;;-1.16;100.00;102408.00;4756733;29;20045;-78
2024/03/07 05:17:46;;;;;;;45.05;20.27;;;0.50;99.90;;;-1.19;100.00;102405.31;4810450;29;20556;-78
2024/03/07 05:20:12;;;;;;;50.83;19.38;;;0.40;99.90;;;-1.24;100.00;102409.50;4833629;29;20068;-79
2024/03/07 05:22:50;;;;;;;45.45;16.77;;;0.40;99.90;;;-1.29;100.00;102406.78;4834380;29;20034;-78
2024/03/07 05:25:18;;;;;;;47.90;19.00;;;0.30;99.90;;;-1.35;100.00;102406.59;4833969;29;20037;-78
2024/03/07 05:27:51;;;;;;;45.97;19.08;;;0.30;99.90;;;-1.40;100.00;102408.19;4836583;29;20122;-78
2024/03/07 05:30:17;;;;;;;49.58;18.92;;;0.20;99.90;;;-1.41;100.00;102406.41;4841680;29;20057;-78
2024/03/07 05:32:43;;;;;;;42.45;18.30;;;0.20;99.90;;;-1.45;100.00;102407.13;4825665;29;20037;-78
2024/03/07 05:35:10;;;;;;;49.75;19.52;;;0.20;99.90;;;-1.48;100.00;102405.34;4823009;29;20493;-77
2024/03/07 05:37:46;;;;;;;56.47;20.13;;;0.10;99.90;;;-1.48;100.00;102410.50;4798452;29;20046;-77
2024/03/07 05:40:12;;;;;;;;;;;0.10;99.90;;;-1.52;100.00;102413.84;4813056;29;20045;-78
2024/03/07 05:42:38;;;;;;;49.50;17.83;;;0.10;99.90;;;-1.53;100.00;102417.25;4811904;29;19928;-78
2024/03/07 05:45:07;;;;;;;48.60;18.27;;;0.10;99.90;;;-1.55;100.00;102416.34;4807122;29;20085;-79
2024/03/07 05:47:34;;;;;;;48.22;19.35;;;0.10;99.90;;;-1.58;100.00;102418.81;4803662;29;20046;-79
2024/03/07 05:50:00;;;;;;;66.82;23.60;;;0.00;99.90;;;-1.60;100.00;102419.59;4789767;29;20069;-78
2024/03/07 05:52:25;;;;;;;61.25;22.38;;;0.10;99.90;;;-1.58;100.00;102428.28;4771002;29;20111;-79
2024/03/07 05:54:51;;;;;;;55.65;20.88;;;0.10;99.90;;;-1.60;100.00;102428.22;4810659;29;20052;-78
2024/03/07 05:57:17;;;;;;;50.47;19.65;;;0.00;99.90;;;-1.60;100.00;102420.47;4804332;29;20480;-79
2024/03/07 05:59:47;;;;;;;44.33;18.35;;;0.00;99.90;;;-1.61;100.00;102433.34;4811018;29;20041;-79
2024/03/07 06:02:15;;;;;;;53.00;20.70;;;0.00;99.90;;;-1.60;100.00;102435.09;4797541;29;20045;-79
2024/03/07 06:04:43;;;;;;;50.13;19.10;;;0.00;99.90;;;-1.60;100.00;102430.81;4812887;29;20059;-78
2024/03/07 06:07:10;;;;;;;46.30;18.25;;;0.00;99.90;;;-1.61;100.00;102431.66;4797037;29;20162;-78
2024/03/07 06:09:40;;;;;;;51.10;18.83;;;0.00;99.90;;;-1.60;100.00;102430.81;4802822;29;20034;-79
2024/03/07 06:12:08;;;;;;;45.47;19.73;;;0.00;99.90;;;-1.60;100.00;102438.56;4801546;29;20516;-78
2024/03/07 06:14:34;;;;;;;53.22;19.92;;;0.00;99.90;;;-1.58;100.00;102438.59;4814310;29;20037;-79
2024/03/07 06:17:00;;;;;;;52.63;18.63;;;0.10;99.90;;;-1.58;100.00;102434.31;4808298;29;20048;-78
2024/03/07 06:19:35;;;;;;;49.15;20.00;;;0.10;99.90;;;-1.55;100.00;102437.00;4769832;29;20042;-79
2024/03/07 06:22:01;;;;;;;58.53;22.58;;;0.10;99.90;;;-1.51;100.00;102441.44;4801799;29;20034;-77
2024/03/07 06:24:30;;;;;;;57.25;19.67;;;0.10;99.90;;;-1.44;100.00;102450.25;4780541;29;20052;-78
2024/03/07 06:27:03;;;;;;;63.95;21.70;;;0.20;99.90;;;-1.37;100.00;102446.16;4817748;29;20301;-79
2024/03/07 06:29:29;;;;;;;54.80;22.48;;;0.30;99.90;;;-1.29;100.00;102442.97;4818452;29;20049;-78
2024/03/07 06:31:55;;;;;;;53.78;22.55;;;0.30;99.90;;;-1.22;100.00;102446.59;4819903;29;20056;-79
2024/03/07 06:34:21;;;;;;;58.97;20.52;;;0.40;99.90;;;-1.14;100.00;102445.13;4782157;29;20038;-79
2024/03/07 06:36:51;;;;;;;47.28;20.75;;;0.50;99.90;;;-1.04;100.00;102454.00;4797875;29;20050;-78
2024/03/07 06:39:21;;;;;;;61.70;23.08;;;0.60;99.90;;;-0.94;100.00;102456.03;4815218;29;20120;-78
2024/03/07 06:41:47;;;;;;;47.65;19.80;;;0.70;99.90;;;-0.80;100.00;102458.13;4808613;29;20405;-78
2024/03/07 06:44:13;;;;;;;54.33;20.88;;;0.80;99.90;;;-0.69;100.00;102462.78;4820093;29;20042;-79
2024/03/07 06:46:46;;;;;;;65.20;24.83;;;0.90;99.90;;;-0.54;100.00;102459.72;4818039;29;20153;-80
2024/03/07 06:49:12;;;;;;;61.72;23.83;;;1.00;99.90;;;-0.34;100.00;102470.59;4778615;29;20034;-79
2024/03/07 06:51:39;;;;;;;54.83;24.58;;;1.20;99.90;;;-0.14;100.00;102478.88;4778017;29;20433;-78
2024/03/07 06:54:05;;;;;;;60.95;24.70;;;1.40;99.90;;;0.06;100.00;102476.78;4785827;29;20041;-79
2024/03/07 06:56:36;;;;;;;57.55;24.05;;;1.50;99.90;;;0.29;100.00;102477.34;4820001;29;20535;-81
2024/03/07 06:59:05;;;;;;;57.20;24.67;;;1.70;99.90;;;0.51;100.00;102485.63;4811771;29;20493;-79
2024/03/07 07:01:31;;;;;;;61.72;24.75;;;2.00;99.90;;;0.70;100.00;102480.03;4784765;29;20034;-78
2024/03/07 07:03:58;;;;;;;51.80;22.00;;;2.10;99.90;;;0.90;100.00;102480.44;4808735;29;20029;-78
2024/03/07 07:06:29;;;;;;;62.97;23.77;;;2.30;99.90;;;1.11;100.00;102499.91;4750369;29;20030;-80
2024/03/07 07:08:54;;;;;;;50.67;22.10;;;2.50;99.90;;;1.31;100.00;102496.00;4801414;29;20141;-79
2024/03/07 07:11:20;;;;;;;46.80;21.25;;;2.70;99.90;;;1.49;100.00;102498.09;4811136;29;20038;-78
2024/03/07 07:13:46;;;;;;;44.50;20.35;;;2.90;99.90;;;1.70;100.00;102502.81;4771211;29;20054;-78
2024/03/07 07:16:12;;;;;;;56.92;21.42;;;3.10;99.90;;;1.90;100.00;102499.69;4803763;29;20037;-79
2024/03/07 07:18:45;;;;;;;38.35;19.48;;;3.30;99.90;;;2.08;100.00;102507.81;4801532;29;20041;-78
2024/03/07 07:21:14;;;;;;;42.60;19.95;;;3.40;99.90;;;2.27;100.00;102506.41;4838238;29;20094;-80
2024/03/07 07:23:42;;;;;;;42.10;19.08;;;3.60;99.90;;;2.46;100.00;102508.44;4766995;29;20022;-78
2024/03/07 07:26:10;;;;;;;44.15;18.63;;;3.80;99.90;;;2.65;100.00;102513.91;4800738;29;20037;-80
2024/03/07 07:28:36;;;;;;;45.22;19.50;;;4.00;99.90;;;2.86;100.00;102515.94;4748029;29;20043;-80
2024/03/07 07:31:03;;;;;;;36.45;17.63;;;4.20;99.90;;;3.04;100.00;102507.50;4788743;29;20052;-79
2024/03/07 07:33:29;;;;;;;37.40;17.23;;;4.40;99.90;;;3.21;100.00;102516.41;4798045;29;20177;-78
2024/03/07 07:35:54;;;;;;;38.45;17.27;;;4.50;99.90;;;3.39;100.00;102526.19;4782252;29;20072;-79
2024/03/07 07:38:20;;;;;;;34.92;16.55;;;4.60;99.90;;;3.56;100.00;102522.88;4787736;29;20046;-79
2024/03/07 07:40:55;;;;;;;35.08;16.63;;;4.90;99.90;;;3.73;99.91;102528.28;4785043;29;20493;-79
2024/03/07 07:43:21;;;;;;;37.45;15.80;;;5.10;99.90;;;3.87;98.72;102524.97;4779312;29;20054;-79
2024/03/07 07:45:47;;;;;;;35.72;16.55;;;5.20;99.90;;;3.99;97.59;102528.56;4816558;29;20120;-79
2024/03/07 07:48:14;;;;;;;31.67;15.48;;;5.30;99.90;;;4.07;96.22;102522.56;4793570;29;20081;-80
2024/03/07 07:50:49;;;;;;;28.58;15.15;;;5.40;99.90;;;4.18;94.87;102525.25;4806808;29;20132;-79
2024/03/07 07:53:14;;;;;;;34.42;15.18;;;5.50;99.90;;;4.28;94.20;102531.44;4787123;29;20034;-81
2024/03/07 07:55:40;;;;;;;31.40;14.80;;;5.60;99.90;;;4.42;93.13;102534.13;4799968;29;20187;-81
2024/03/07 07:58:18;;;;;;;33.08;15.20;;;5.70;99.90;;;4.55;92.12;102527.28;4765626;29;20041;-80
2024/03/07 08:00:44;;;;;;;34.70;15.25;;;5.90;99.90;;;4.73;92.01;102528.28;4751506;29;20124;-81
2024/03/07 08:03:20;;;;;;;35.15;14.70;;;6.10;99.90;;;4.94;91.20;102539.72;4754827;29;20117;-81
2024/03/07 08:05:46;;;;;;;;;;;6.00;99.90;;;5.04;90.31;102536.28;4786265;29;20441;-81
2024/03/07 08:08:13;;;;;;;39.20;19.23;;;6.30;99.90;;;5.20;89.50;102537.22;4822602;29;19938;-81
2024/03/07 08:10:47;;;;;;;36.75;15.48;;;6.50;99.90;;;5.39;88.56;102539.94;4831362;29;20569;-80
2024/03/07 08:13:13;;;;;;;31.33;14.82;;;6.60;99.90;;;5.54;88.08;102546.09;4837318;29;20420;-81
2024/03/07 08:15:39;;;;;;;29.17;14.55;;;6.80;99.90;;;5.69;86.89;102553.09;4787226;29;20055;-84
2024/03/07 08:18:29;;;;;;;29.17;14.98;;;7.00;99.90;;;5.87;85.86;102552.25;4745992;29;20118;-86
2024/03/07 08:20:56;;;;;;;30.27;13.90;;;;;;;6.03;84.78;102553.22;4780323;29;20053;-83
2024/03/07 08:23:25;;;;;;;31.10;13.52;;;7.20;99.90;;;6.17;83.71;102555.84;4778702;29;20041;-81
2024/03/07 08:25:58;;;;;;;32.97;13.88;;;7.40;99.90;;;6.24;83.19;102559.31;4765683;29;20128;-81
2024/03/07 08:28:24;;;;;;;26.52;13.05;;;7.50;99.90;;;6.35;81.66;102566.34;4781539;29;20047;-81
2024/03/07 08:30:50;;;;;;;37.38;13.95;;;7.60;99.90;;;6.48;80.58;102567.22;4774836;29;20166;-81
2024/03/07 08:33:16;;;;;;;24.90;13.10;;;7.70;99.90;;;6.62;79.99;102571.56;4774650;29;20078;-81
2024/03/07 08:35:46;;;;;;;25.67;13.55;;;7.80;99.90;;;6.69;78.15;102576.78;4800871;29;20038;-81
2024/03/07 08:38:12;;;;;;;30.23;12.63;;;7.90;99.90;;;6.81;77.79;102569.78;4814152;29;20049;-81
2024/03/07 08:40:38;;;;;;;29.85;12.68;;;8.00;99.90;;;6.87;77.36;102570.66;4778315;29;20050;-81
2024/03/07 08:43:06;;;;;;;20.45;11.95;;;8.10;99.90;;;6.94;76.23;102577.63;4805619;29;20038;-81
2024/03/07 08:45:42;;;;;;;22.10;11.38;;;8.20;99.90;;;6.96;75.13;102580.25;4780015;29;20034;-81
2024/03/07 08:48:11;;;;;;;23.55;11.73;;;8.20;99.90;;;7.08;74.94;102593.28;4774421;29;20051;-82
2024/03/07 08:50:37;;;;;;;28.20;11.45;;;8.30;99.90;;;7.17;74.43;102589.78;4825358;29;20040;-83
2024/03/07 08:53:10;;;;;;;23.17;11.93;;;8.40;99.90;;;7.32;74.21;102587.13;4763637;29;20037;-82
2024/03/07 08:55:36;;;;;;;24.30;11.50;;;8.60;99.90;;;7.45;73.07;102585.34;4808310;29;20041;-82
2024/03/07 08:58:02;;;;;;;32.15;11.50;;;8.70;99.90;;;7.61;72.16;102591.38;4776483;29;20516;-83
2024/03/07 09:00:28;;;;;;;21.33;11.95;;;8.80;99.90;;;7.74;71.45;102602.69;4752714;29;20050;-83
2024/03/07 09:03:03;;;;;;;20.13;11.25;;;9.00;99.90;;;7.87;71.72;102604.38;4824237;29;20042;-83
2024/03/07 09:05:33;;;;;;;24.27;12.03;;;9.10;99.90;;;8.00;71.27;102605.19;4795276;29;20102;-82
2024/03/07 09:08:07;;;;;;;24.55;10.90;;;9.20;99.90;;;8.11;70.46;102607.72;4772499;29;20446;-82
2024/03/07 09:10:33;;;;;;;20.10;10.40;;;9.30;99.90;;;8.07;67.52;102621.75;4799331;29;20037;-82
2024/03/07 09:12:59;;;;;;;23.33;11.57;;;9.30;99.90;;;8.14;67.29;102626.97;4804596;29;20049;-82
2024/03/07 09:15:25;;;;;;;25.23;10.98;;;9.40;99.90;;;8.21;67.98;102619.94;4821134;29;20042;-82
2024/03/07 09:17:57;;;;;;;22.05;10.85;;;9.40;99.90;;;8.28;67.80;102620.75;4785466;29;20045;-82
2024/03/07 09:20:24;;;;;;;23.58;11.43;;;9.50;99.90;;;8.36;68.28;102625.06;4812137;29;20041;-82
2024/03/07 09:22:50;;;;;;;25.13;12.57;;;9.60;99.90;;;8.54;68.84;102628.47;4772476;29;20468;-81
2024/03/07 09:25:18;;;;;;;23.63;11.63;;;9.80;99.90;;;8.70;67.79;102630.06;4769420;29;20046;-82
2024/03/07 09:27:54;;;;;;;20.30;10.80;;;9.70;99.90;;;8.46;62.63;102648.66;4819868;29;20089;-82
2024/03/07 09:30:24;;;;;;;31.38;11.90;;;9.60;99.90;;;8.26;61.94;102657.50;4792920;29;20547;-81
2024/03/07 09:32:54;;;;;;;27.52;11.70;;;9.60;99.90;;;8.24;61.49;102659.25;4794755;29;20042;-82
2024/03/07 09:35:24;;;;;;;26.75;11.20;;;9.50;99.90;;;8.14;60.73;102657.56;4809448;29;20053;-81
2024/03/07 09:37:57;;;;;;;23.52;13.65;;;9.50;99.90;;;8.25;62.16;102658.41;4841159;29;20046;-81
2024/03/07 09:40:25;;;;;;;22.17;11.57;;;9.60;99.90;;;8.29;61.67;102660.09;4788940;29;20044;-81
2024/03/07 09:47:39;;;;;;;21.20;9.88;;;9.60;99.90;;;8.38;61.38;102667.03;4828300;23;20048;-87
2024/03/07 09:58:19;;;;;;;18.83;10.77;;;10.00;99.90;;;8.85;58.91;102686.84;4782306;29;20042;-88
2024/03/07 10:04:57;;;;;;;25.10;11.07;;;10.00;99.90;;;8.72;58.24;102707.09;4773596;29;20114;-90
2024/03/07 10:12:37;;;;;;;20.23;10.48;;;10.20;99.90;;;9.07;57.74;102708.59;3239348;27;20109;-83
2024/03/07 10:15:07;;;;;;;22.85;10.70;;;;;;;9.19;57.93;102708.47;4842486;29;20121;-84
2024/03/07 10:17:45;;;;;;;19.83;10.55;;;10.40;99.90;;;9.21;57.24;102716.34;4836354;29;20041;-85
2024/03/07 10:20:24;;;;;;;21.08;11.90;;;10.40;99.90;;;9.33;58.18;102705.72;4801106;29;20481;-83
2024/03/07 10:22:51;;;;;;;19.73;10.18;;;10.50;99.90;;;9.40;57.82;102717.06;4789099;29;20049;-84
2024/03/07 10:25:27;;;;;;;20.27;10.85;;;10.60;99.90;;;9.47;58.33;102710.84;4827205;29;20056;-83
2024/03/07 10:27:54;;;;;;;24.38;11.30;;;10.60;99.90;;;9.32;57.70;102714.47;4868644;29;20041;-84
2024/03/07 10:30:20;;;;;;;19.20;10.90;;;10.60;99.90;;;9.24;58.60;102706.69;4817799;29;20105;-83
2024/03/07 10:33:12;;;;;;;24.45;11.13;;;;;;;9.27;57.17;102725.94;4816929;29;20041;-84
2024/03/07 10:35:38;;;;;;;20.02;11.23;;;10.40;99.90;;;9.19;56.18;102731.25;4829220;29;20531;-83